createdAt,value
2023-04-10T02:20:40.839Z,99.90
2023-04-10T02:23:12.175Z,99.90
2023-04-10T02:25:42.318Z,99.90
2023-04-10T02:28:12.285Z,99.90
2023-04-10T02:30:45.670Z,99.90
2023-04-10T02:33:16.527Z,99.90
2023-04-10T02:35:46.797Z,99.90
2023-04-10T02:38:17.481Z,99.90
2023-04-10T02:40:47.772Z,99.90
2023-04-10T02:43:20.074Z,99.90
2023-04-10T02:45:53.810Z,99.90
2023-04-10T02:48:28.674Z,99.90
2023-04-10T02:51:03.273Z,99.90
2023-04-10T02:53:33.572Z,99.90
2023-04-10T02:56:06.939Z,99.90
2023-04-10T02:58:37.468Z,99.90
2023-04-10T03:01:11.658Z,99.90
2023-04-10T03:03:44.349Z,99.90
2023-04-10T03:06:16.329Z,99.90
2023-04-10T03:08:49.016Z,99.90
2023-04-10T03:11:19.250Z,99.90
2023-04-10T03:13:49.695Z,99.90
2023-04-10T03:16:22.430Z,99.90
2023-04-10T03:18:52.740Z,99.90
2023-04-10T03:21:22.776Z,99.90
2023-04-10T03:23:53.100Z,99.90
2023-04-10T03:26:24.215Z,99.90
2023-04-10T03:28:55.039Z,99.90
2023-04-10T03:31:27.795Z,99.90
2023-04-10T03:34:01.006Z,99.90
2023-04-10T03:36:32.049Z,99.90
2023-04-10T03:39:02.003Z,99.90
2023-04-10T03:41:33.101Z,99.90
2023-04-10T03:44:04.088Z,99.90
2023-04-10T03:46:37.137Z,99.90
2023-04-10T03:49:07.360Z,99.90
2023-04-10T03:51:37.789Z,99.90
2023-04-10T03:54:07.778Z,99.90
2023-04-10T03:56:38.404Z,99.90
2023-04-10T03:59:08.513Z,99.90
2023-04-10T04:01:46.014Z,99.90
2023-04-10T04:04:16.487Z,99.90
2023-04-10T04:06:59.283Z,99.90
2023-04-10T04:09:34.113Z,99.90
2023-04-10T04:12:23.526Z,99.90
2023-04-10T04:15:03.272Z,99.90
2023-04-10T04:17:54.797Z,99.90
2023-04-10T04:20:39.686Z,99.90
2023-04-10T04:23:33.165Z,99.90
2023-04-10T04:26:16.515Z,99.90
2023-04-10T04:28:57.455Z,99.90
2023-04-10T04:31:47.931Z,99.90
2023-04-10T04:34:33.030Z,99.90
2023-04-10T04:37:35.724Z,99.90
2023-04-10T04:40:36.590Z,99.90
2023-04-10T04:43:32.841Z,99.90
2023-04-10T04:46:18.890Z,99.90
2023-04-10T04:49:04.051Z,99.90
2023-04-10T04:51:49.954Z,99.90
2023-04-10T04:54:45.282Z,99.90
2023-04-10T04:57:34.489Z,99.90
2023-04-10T05:00:23.560Z,99.90
2023-04-10T05:02:56.368Z,99.90
2023-04-10T05:05:39.733Z,99.90
2023-04-10T05:08:17.982Z,99.90
2023-04-10T05:11:03.155Z,99.90
2023-04-10T05:13:45.128Z,99.90
2023-04-10T05:16:35.464Z,99.90
2023-04-10T05:19:18.736Z,99.90
2023-04-10T05:22:06.512Z,99.90
2023-04-10T05:24:58.122Z,99.90
2023-04-10T05:27:33.425Z,99.90
2023-04-10T05:30:29.492Z,99.90
2023-04-10T05:33:22.486Z,99.90
2023-04-10T05:36:12.268Z,99.90
2023-04-10T05:38:56.892Z,99.90
2023-04-10T05:41:42.648Z,99.90
2023-04-10T05:44:31.654Z,99.90
2023-04-10T05:47:24.529Z,99.90
2023-04-10T05:50:18.129Z,99.90
2023-04-10T05:53:16.129Z,99.90
2023-04-10T05:56:19.443Z,99.90
2023-04-10T05:59:10.532Z,99.90
2023-04-10T06:02:03.927Z,99.90
2023-04-10T06:04:34.137Z,99.90
2023-04-10T06:07:04.889Z,99.90
2023-04-10T06:09:36.196Z,98.70
2023-04-10T06:12:09.442Z,97.60
2023-04-10T06:14:44.139Z,98.00
2023-04-10T06:17:15.262Z,98.10
2023-04-10T06:19:45.953Z,98.20
2023-04-10T06:22:16.103Z,98.60
2023-04-10T06:24:47.671Z,97.60
2023-04-10T06:27:18.633Z,97.30
2023-04-10T06:29:51.871Z,96.70
2023-04-10T06:32:25.518Z,96.80
2023-04-10T06:34:56.105Z,96.80
2023-04-10T06:37:31.494Z,96.20
2023-04-10T06:40:07.453Z,95.70
2023-04-10T06:42:38.255Z,95.90
2023-04-10T06:45:33.759Z,96.00
2023-04-10T06:48:03.858Z,95.60
2023-04-10T06:50:34.114Z,94.80
2023-04-10T06:53:04.723Z,94.00
2023-04-10T06:55:34.668Z,92.80
2023-04-10T06:58:04.704Z,91.60
2023-04-10T07:00:37.573Z,89.90
2023-04-10T07:03:07.896Z,90.10
2023-04-10T07:05:39.497Z,90.30
2023-04-10T07:08:11.056Z,89.60
2023-04-10T07:10:41.130Z,89.00
2023-04-10T07:13:11.305Z,90.00
2023-04-10T07:15:44.206Z,89.20
2023-04-10T07:18:14.267Z,88.20
2023-04-10T07:20:44.685Z,87.00
2023-04-10T07:23:14.852Z,86.00
2023-04-10T07:25:46.212Z,83.50
2023-04-10T07:28:16.624Z,84.60
2023-04-10T07:30:49.424Z,86.80
2023-04-10T07:33:19.688Z,84.20
2023-04-10T07:35:50.335Z,82.90
2023-04-10T07:38:21.600Z,82.90
2023-04-10T07:40:51.589Z,82.50
2023-04-10T07:43:21.755Z,82.50
2023-04-10T07:45:54.729Z,82.90
2023-04-10T07:48:25.108Z,81.20
2023-04-10T07:50:56.090Z,79.30
2023-04-10T07:55:57.021Z,76.70
2023-04-10T07:58:27.180Z,76.00
2023-04-10T08:00:59.902Z,71.80
2023-04-10T08:03:30.009Z,68.80
2023-04-10T08:06:00.396Z,67.30
2023-04-10T08:08:30.523Z,63.70
2023-04-10T08:11:01.046Z,59.90
2023-04-10T08:13:31.131Z,61.20
2023-04-10T08:16:04.066Z,58.50
2023-04-10T08:18:34.210Z,58.40
2023-04-10T08:21:04.563Z,59.60
2023-04-10T08:23:34.998Z,59.40
2023-04-10T08:26:05.699Z,57.90
2023-04-10T08:28:37.255Z,57.20
2023-04-10T08:31:10.508Z,57.30
2023-04-10T08:33:40.493Z,56.00
2023-04-10T08:36:12.915Z,54.60
2023-04-10T08:38:43.128Z,54.80
2023-04-10T08:41:14.132Z,55.00
2023-04-10T08:43:46.631Z,55.90
2023-04-10T08:46:20.355Z,56.30
2023-04-10T08:49:00.712Z,57.30
2023-04-10T08:51:37.626Z,57.00
2023-04-10T08:54:11.226Z,56.20
2023-04-10T08:56:44.858Z,55.40
2023-04-10T08:59:16.531Z,56.90
2023-04-10T09:01:56.472Z,56.70
2023-04-10T09:04:27.869Z,56.10
2023-04-10T09:07:01.507Z,56.60
2023-04-10T09:09:33.610Z,55.60
2023-04-10T09:12:09.566Z,54.70
2023-04-10T09:14:44.100Z,53.50
2023-04-10T09:17:32.213Z,53.90
2023-04-10T09:20:02.431Z,53.80
2023-04-10T09:22:34.349Z,52.20
2023-04-10T09:25:07.678Z,53.30
2023-04-10T09:27:40.343Z,53.80
2023-04-10T09:30:11.892Z,53.40
2023-04-10T09:32:46.832Z,52.30
2023-04-10T09:35:18.672Z,52.40
2023-04-10T09:37:49.123Z,50.50
2023-04-10T09:40:27.260Z,51.90
2023-04-10T09:42:58.825Z,52.10
2023-04-10T09:45:29.233Z,52.20
2023-04-10T09:48:10.069Z,50.50
2023-04-10T09:50:41.312Z,50.90
2023-04-10T09:53:12.477Z,50.00
2023-04-10T09:55:43.372Z,50.80
2023-04-10T09:58:14.409Z,50.90
2023-04-10T10:00:45.803Z,50.10
2023-04-10T10:03:21.361Z,50.60
2023-04-10T10:05:52.914Z,49.40
2023-04-10T10:08:24.338Z,48.20
2023-04-10T10:10:57.701Z,49.00
2023-04-10T10:13:32.446Z,47.30
2023-04-10T10:16:12.722Z,47.70
2023-04-10T10:18:48.398Z,48.60
2023-04-10T10:21:24.672Z,48.00
2023-04-10T10:23:56.833Z,46.70
2023-04-10T10:26:27.305Z,45.10
2023-04-10T10:28:59.545Z,44.50
2023-04-10T10:31:33.457Z,44.10
2023-04-10T10:34:09.731Z,44.40
2023-04-10T10:36:41.166Z,44.00
2023-04-10T10:39:29.995Z,44.80
2023-04-10T10:42:09.026Z,44.00
2023-04-10T10:44:47.253Z,44.70
2023-04-10T10:47:20.868Z,45.40
2023-04-10T10:50:01.895Z,44.70
2023-04-10T10:52:49.896Z,43.90
2023-04-10T10:55:37.999Z,42.10
2023-04-10T10:58:09.620Z,41.90
2023-04-10T11:01:12.683Z,42.80
2023-04-10T11:03:45.275Z,43.80
2023-04-10T11:06:20.184Z,44.10
2023-04-10T11:08:54.092Z,44.30
2023-04-10T11:11:25.970Z,44.30
2023-04-10T11:14:21.893Z,44.60
2023-04-10T11:16:52.077Z,44.60
2023-04-10T11:19:25.479Z,43.40
2023-04-10T11:22:10.808Z,44.10
2023-04-10T11:25:10.849Z,44.20
2023-04-10T11:27:49.904Z,43.60
2023-04-10T11:30:34.067Z,40.30
2023-04-10T11:33:06.088Z,41.50
2023-04-10T11:35:36.758Z,39.90
2023-04-10T11:38:17.640Z,40.70
2023-04-10T11:41:04.125Z,39.70
2023-04-10T11:43:35.360Z,39.00
2023-04-10T11:46:09.289Z,37.40
2023-04-10T11:48:40.482Z,32.70
2023-04-10T11:51:15.378Z,31.80
2023-04-10T11:53:47.936Z,33.20
2023-04-10T11:56:19.757Z,33.50
2023-04-10T11:58:55.313Z,33.40
2023-04-10T12:01:25.893Z,32.10
2023-04-10T12:03:58.267Z,31.10
2023-04-10T12:06:30.148Z,33.00
2023-04-10T12:09:16.205Z,32.60
2023-04-10T12:11:53.485Z,33.60
2023-04-10T12:14:24.579Z,34.30
2023-04-10T12:16:55.231Z,33.80
2023-04-10T12:19:25.304Z,34.60
2023-04-10T12:21:55.630Z,34.20
2023-04-10T12:24:53.570Z,34.70
2023-04-10T12:27:27.052Z,32.90
2023-04-10T12:29:59.025Z,33.30
2023-04-10T12:32:30.325Z,33.80
2023-04-10T12:35:03.732Z,33.90
2023-04-10T12:37:52.410Z,35.30
2023-04-10T12:40:25.128Z,35.60
2023-04-10T12:42:55.463Z,35.90
2023-04-10T12:45:25.540Z,36.60
2023-04-10T12:47:56.563Z,37.70
2023-04-10T12:50:28.176Z,37.60
2023-04-10T12:53:06.900Z,38.50
2023-04-10T12:55:39.717Z,39.60
2023-04-10T12:58:20.350Z,39.10
2023-04-10T13:00:50.642Z,38.20
2023-04-10T13:03:21.259Z,39.10
2023-04-10T13:05:52.222Z,38.90
2023-04-10T13:08:22.442Z,38.90
2023-04-10T13:10:55.257Z,38.10
2023-04-10T13:13:25.254Z,37.90
2023-04-10T13:15:55.764Z,38.10
2023-04-10T13:18:25.786Z,38.00
2023-04-10T13:20:56.007Z,37.00
2023-04-10T13:23:26.387Z,37.50
2023-04-10T13:25:59.314Z,38.00
2023-04-10T13:28:29.419Z,37.70
2023-04-10T13:30:59.388Z,38.10
2023-04-10T13:33:29.360Z,37.90
2023-04-10T13:35:59.410Z,38.00
2023-04-10T13:38:29.777Z,38.70
2023-04-10T13:41:02.379Z,38.80
2023-04-10T13:43:32.592Z,38.80
2023-04-10T13:46:02.686Z,38.80
2023-04-10T13:48:40.713Z,37.90
2023-04-10T13:51:12.523Z,36.90
2023-04-10T13:53:42.578Z,36.60
2023-04-10T13:56:15.246Z,36.80
2023-04-10T13:58:45.508Z,36.30
2023-04-10T14:01:15.554Z,37.10
2023-04-10T14:03:46.148Z,37.90
2023-04-10T14:06:16.684Z,37.90
2023-04-10T14:08:46.797Z,38.50
2023-04-10T14:11:19.452Z,36.90
2023-04-10T14:13:49.408Z,37.70
2023-04-10T14:16:19.965Z,37.80
2023-04-10T14:18:49.951Z,38.00
2023-04-10T14:21:20.771Z,38.20
2023-04-10T14:23:51.014Z,37.80
2023-04-10T14:26:23.576Z,38.20
2023-04-10T14:28:53.710Z,38.60
2023-04-10T14:31:23.874Z,38.40
2023-04-10T14:33:54.043Z,39.10
2023-04-10T14:36:24.401Z,38.90
2023-04-10T14:38:54.660Z,38.70
2023-04-10T14:41:28.938Z,39.20
2023-04-10T14:43:59.505Z,39.50
2023-04-10T14:46:29.838Z,38.70
2023-04-10T14:49:00.048Z,38.60
2023-04-10T14:51:30.074Z,38.10
2023-04-10T14:54:00.417Z,38.10
2023-04-10T14:56:33.479Z,38.70
2023-04-10T14:59:03.784Z,38.40
2023-04-10T15:01:33.817Z,38.60
2023-04-10T15:04:07.798Z,39.00
2023-04-10T15:06:37.886Z,39.10
2023-04-10T15:09:08.158Z,39.90
2023-04-10T15:11:40.778Z,39.60
2023-04-10T15:14:12.329Z,38.90
2023-04-10T15:16:42.716Z,39.00
2023-04-10T15:19:12.914Z,39.30
2023-04-10T15:21:42.889Z,40.00
2023-04-10T15:24:13.049Z,40.70
2023-04-10T15:26:48.115Z,41.10
2023-04-10T15:29:18.250Z,41.90
2023-04-10T15:31:48.299Z,42.50
2023-04-10T15:34:20.176Z,42.80
2023-04-10T15:36:50.292Z,43.00
2023-04-10T15:39:20.454Z,43.10
2023-04-10T15:41:53.559Z,43.60
2023-04-10T15:44:23.890Z,44.10
2023-04-10T15:46:56.726Z,44.30
2023-04-10T15:49:37.244Z,44.90
2023-04-10T15:52:11.838Z,45.10
2023-04-10T15:54:47.277Z,45.90
2023-04-10T15:57:20.108Z,45.90
2023-04-10T15:59:50.232Z,46.30
2023-04-10T16:02:20.476Z,46.30
2023-04-10T16:04:51.298Z,45.80
2023-04-10T16:07:21.339Z,47.00
2023-04-10T16:09:53.022Z,47.30
2023-04-10T16:12:25.807Z,47.10
2023-04-10T16:14:55.889Z,47.80
2023-04-10T16:17:25.933Z,47.80
2023-04-10T16:19:58.170Z,47.60
2023-04-10T16:22:28.271Z,47.90
2023-04-10T16:24:59.895Z,48.40
2023-04-10T16:27:32.918Z,47.80
2023-04-10T16:30:06.924Z,48.70
2023-04-10T16:32:37.364Z,48.70
2023-04-10T16:35:09.628Z,48.70
2023-04-10T16:37:40.394Z,49.10
2023-04-10T16:40:12.759Z,49.40
2023-04-10T16:42:46.188Z,49.70
2023-04-10T16:45:16.326Z,49.60
2023-04-10T16:47:46.878Z,49.80
2023-04-10T16:50:16.975Z,49.80
2023-04-10T16:52:46.938Z,50.20
2023-04-10T16:55:17.391Z,50.20
2023-04-10T16:57:50.868Z,50.20
2023-04-10T17:00:22.818Z,50.70
2023-04-10T17:02:52.878Z,51.10
2023-04-10T17:05:23.221Z,51.20
2023-04-10T17:07:54.575Z,51.10
2023-04-10T17:10:24.783Z,51.50
2023-04-10T17:13:06.648Z,51.60
2023-04-10T17:15:38.816Z,51.90
2023-04-10T17:18:12.095Z,52.20
2023-04-10T17:20:44.248Z,52.20
2023-04-10T17:23:15.424Z,52.80
2023-04-10T17:25:45.906Z,53.10
2023-04-10T17:28:18.708Z,53.10
2023-04-10T17:30:48.814Z,53.70
2023-04-10T17:33:19.148Z,53.90
2023-04-10T17:35:50.777Z,54.00
2023-04-10T17:38:21.259Z,54.40
2023-04-10T17:40:51.341Z,54.70
2023-04-10T17:43:24.746Z,54.80
2023-04-10T17:45:56.742Z,55.10
2023-04-10T17:48:27.485Z,55.50
2023-04-10T17:51:08.092Z,55.60
2023-04-10T17:53:39.464Z,55.40
2023-04-10T17:56:10.997Z,55.60
2023-04-10T17:58:44.762Z,55.80
2023-04-10T18:01:14.948Z,56.20
2023-04-10T18:03:46.210Z,56.90
2023-04-10T18:06:16.672Z,57.10
2023-04-10T18:08:46.793Z,56.80
2023-04-10T18:11:16.879Z,57.10
2023-04-10T18:13:50.359Z,57.20
2023-04-10T18:16:20.776Z,57.90
2023-04-10T18:18:50.785Z,58.00
2023-04-10T18:21:20.920Z,57.60
2023-04-10T18:23:51.123Z,57.90
2023-04-10T18:26:21.445Z,57.90
2023-04-10T18:28:54.701Z,58.20
2023-04-10T18:31:25.077Z,58.10
2023-04-10T18:34:06.423Z,58.00
2023-04-10T18:36:38.262Z,58.00
2023-04-10T18:39:08.358Z,58.30
2023-04-10T18:41:39.224Z,59.60
2023-04-10T18:44:12.303Z,59.50
2023-04-10T18:46:48.618Z,59.30
2023-04-10T18:49:23.908Z,59.50
2023-04-10T18:51:53.994Z,59.70
2023-04-10T18:54:24.332Z,60.20
2023-04-10T18:56:54.529Z,59.90
2023-04-10T18:59:27.548Z,61.00
2023-04-10T19:01:58.375Z,60.50
2023-04-10T19:04:29.230Z,59.50
2023-04-10T19:06:59.616Z,59.70
2023-04-10T19:09:29.661Z,59.30
2023-04-10T19:12:00.041Z,60.10
2023-04-10T19:14:33.256Z,60.50
2023-04-10T19:17:06.387Z,58.10
2023-04-10T19:19:36.809Z,57.30
2023-04-10T19:22:07.013Z,57.10
2023-04-10T19:24:37.194Z,58.80
2023-04-10T19:27:07.641Z,58.20
2023-04-10T19:29:40.619Z,58.30
2023-04-10T19:32:13.564Z,58.10
2023-04-10T19:34:43.786Z,57.40
2023-04-10T19:37:13.894Z,57.90
2023-04-10T19:39:44.115Z,57.70
2023-04-10T19:42:14.235Z,57.80
2023-04-10T19:44:47.603Z,58.70
2023-04-10T19:47:18.312Z,59.30
2023-04-10T19:49:48.596Z,60.30
2023-04-10T19:52:18.966Z,59.70
2023-04-10T19:54:49.157Z,59.40
2023-04-10T19:57:19.205Z,59.70
2023-04-10T19:59:51.853Z,59.80
2023-04-10T20:02:22.974Z,60.40
2023-04-10T20:04:53.408Z,60.30
2023-04-10T20:07:23.562Z,60.80
2023-04-10T20:09:53.872Z,61.00
2023-04-10T20:12:24.456Z,61.90
2023-04-10T20:14:57.525Z,62.30
2023-04-10T20:17:28.582Z,63.40
2023-04-10T20:19:59.066Z,65.60
2023-04-10T20:22:29.548Z,63.90
2023-04-10T20:25:00.195Z,65.00
2023-04-10T20:27:30.271Z,65.50
2023-04-10T20:30:03.550Z,65.60
2023-04-10T20:32:34.137Z,65.40
2023-04-10T20:35:04.389Z,66.30
2023-04-10T20:37:34.482Z,65.90
2023-04-10T20:40:04.629Z,66.40
2023-04-10T20:42:34.705Z,67.50
2023-04-10T20:45:08.327Z,68.30
2023-04-10T20:47:39.633Z,70.10
2023-04-10T20:50:12.772Z,71.20
2023-04-10T20:52:43.326Z,72.70
2023-04-10T20:55:13.770Z,74.30
2023-04-10T20:57:43.796Z,75.00
2023-04-10T21:00:19.076Z,76.00
2023-04-10T21:02:50.253Z,76.50
2023-04-10T21:05:20.553Z,77.10
2023-04-10T21:07:51.059Z,78.10
2023-04-10T21:10:21.526Z,78.90
2023-04-10T21:12:51.775Z,79.70
2023-04-10T21:15:25.480Z,79.90
2023-04-10T21:17:55.594Z,80.70
2023-04-10T21:20:26.381Z,81.10
2023-04-10T21:22:56.995Z,81.40
2023-04-10T21:25:27.440Z,81.90
2023-04-10T21:27:57.450Z,82.50
2023-04-10T21:30:30.412Z,82.90
2023-04-10T21:33:00.702Z,84.00
2023-04-10T21:35:31.657Z,83.80
2023-04-10T21:38:02.849Z,84.20
2023-04-10T21:40:34.636Z,84.30
2023-04-10T21:43:04.949Z,84.70
2023-04-10T21:45:37.939Z,85.70
2023-04-10T21:48:08.647Z,85.10
2023-04-10T21:50:38.796Z,85.30
2023-04-10T21:53:09.101Z,85.60
2023-04-10T21:55:39.234Z,86.00
2023-04-10T21:58:09.293Z,86.70
2023-04-10T22:00:42.851Z,86.00
2023-04-10T22:03:13.345Z,85.80
2023-04-10T22:05:44.140Z,85.50
2023-04-10T22:08:14.303Z,85.90
2023-04-10T22:10:46.037Z,86.10
2023-04-10T22:13:29.736Z,85.60
2023-04-10T22:16:05.894Z,85.30
2023-04-10T22:18:36.201Z,85.60
2023-04-10T22:21:08.469Z,85.40
2023-04-10T22:23:38.559Z,85.00
2023-04-10T22:26:09.842Z,84.80
2023-04-10T22:28:39.982Z,84.20
2023-04-10T22:31:18.001Z,85.30
2023-04-10T22:33:49.693Z,84.60
2023-04-10T22:36:19.882Z,84.50
2023-04-10T22:38:50.293Z,84.90
2023-04-10T22:41:20.752Z,85.00
2023-04-10T22:43:50.936Z,84.90
2023-04-10T22:46:23.943Z,85.50
2023-04-10T22:48:54.922Z,85.80
2023-04-10T22:51:25.163Z,85.80
2023-04-10T22:53:57.132Z,85.70
2023-04-10T22:56:29.668Z,85.80
2023-04-10T22:58:59.654Z,85.80
2023-04-10T23:01:32.675Z,86.30
2023-04-10T23:04:03.282Z,87.00
2023-04-10T23:06:33.464Z,86.50
2023-04-10T23:09:03.856Z,86.60
2023-04-10T23:11:34.285Z,87.00
2023-04-10T23:14:04.826Z,87.00
2023-04-10T23:16:38.207Z,87.80
2023-04-10T23:19:08.312Z,88.20
2023-04-10T23:21:38.413Z,89.20
2023-04-10T23:24:09.089Z,89.60
2023-04-10T23:26:39.138Z,89.80
2023-04-10T23:29:11.529Z,90.10
2023-04-10T23:31:45.586Z,89.90
2023-04-10T23:34:15.639Z,90.00
2023-04-10T23:36:45.940Z,90.20
2023-04-10T23:39:16.513Z,90.50
2023-04-10T23:41:46.926Z,90.50
2023-04-10T23:44:16.949Z,90.60
2023-04-10T23:46:49.620Z,90.60
2023-04-10T23:49:19.984Z,90.80
2023-04-10T23:51:50.077Z,91.00
2023-04-10T23:54:20.195Z,91.30
2023-04-10T23:56:50.141Z,91.50
2023-04-10T23:59:20.403Z,91.70
